Winkler County Airport
KINK : now visible

Airfield :











YOU CAN JOIN US ON...

 
LOGIN :

Register | Disclaimer

   EN    FR    IT 

 









Legend :    VFR   Marginal VFR   IFR   Intensive IFR   Very Intensive IFR
Visi :
Ceiling :
>= 8 km
>= 3000ft
5 to 8 km
1000 to 3000 ft
1500m to 5 km
500 to 1000 ft
800 to 1500m
200 to 500 ft
< 800m
< 200 ft
Symbols :   Thunderstorms  Fog  Heavy snow  Heavy precipitations  Wind > 20 kt







- Airport Elevation : 2822 ft


KINK - Winkler County

CURRENT METAR :
  • 210153Z AUTO 13013KT 10SM CLR 27/02 A2979 RMK AO2 PK WND 15030/0058 SLP050 T02670022

EXPIRED METARs :
  • 210053Z AUTO 13010G25KT 10SM CLR 30/M02 A2978 RMK AO2 PK WND 15031/0020 SLP045 T03001022
  • 202353Z AUTO 14021G29KT 10SM CLR 31/M01 A2977 RMK AO2 PK WND 13029/2352 WSHFT 2330 SLP044 T03111006 10339 20289 55015
  • 202350Z AUTO 14018G26KT 10SM CLR 31/M01 A2977 RMK AO2 PK WND 15027/2336 WSHFT 2330

TAF KINK
Valid from the 21 at 02:00 until the 22 at 00:00 UTC


210200Z 2102/2124 14015KT P6SM SKC
FM211600 27010G20KT P6SM SKC
KZFW FIR / North America



MET'MAP, your aeronautical weather chart ! - Copyright ORBIFLY December 2007 - Disclaimer

ORBIFLY MET'MAP TEAM :

Programming & Development : Alexandra Zaïnal
Concept & Development : Baudouin d'Aumeries
Co-Development & Prog : Marc-Olivier Méhu
Technical & hardware support : Manuel Goepfert

Contact : metmap@orbifly.com




SOURCES & CREDITS :

   NOAA       Earth
Advisory